createdAt,value
2023-09-28T00:00:23.556Z,17.17
2023-09-28T00:00:55.542Z,17.22
2023-09-28T00:01:28.268Z,17.20
2023-09-28T00:02:00.614Z,17.21
2023-09-28T00:02:36.204Z,17.20
2023-09-28T00:03:09.864Z,17.20
2023-09-28T00:03:41.912Z,17.24
2023-09-28T00:04:13.872Z,17.22
2023-09-28T00:04:45.860Z,17.24
2023-09-28T00:05:17.947Z,17.24
2023-09-28T00:05:50.424Z,17.26
2023-09-28T00:06:22.355Z,17.29
2023-09-28T00:06:54.254Z,17.27
2023-09-28T00:07:26.199Z,17.31
2023-09-28T00:07:59.521Z,17.32
2023-09-28T00:08:31.492Z,17.34
2023-09-28T00:09:04.556Z,17.34
2023-09-28T00:09:36.418Z,17.32
2023-09-28T00:10:13.569Z,17.34
2023-09-28T00:10:45.737Z,17.31
2023-09-28T00:11:17.661Z,17.28
2023-09-28T00:11:49.628Z,17.29
2023-09-28T00:12:21.600Z,17.30
2023-09-28T00:12:55.008Z,17.32
2023-09-28T00:13:26.987Z,17.32
2023-09-28T00:13:58.936Z,17.29
2023-09-28T00:14:30.885Z,17.30
2023-09-28T00:15:02.833Z,17.31
2023-09-28T00:15:34.861Z,17.27
2023-09-28T00:16:06.880Z,17.26
2023-09-28T00:16:39.003Z,17.29
2023-09-28T00:17:11.200Z,17.31
2023-09-28T00:17:44.001Z,17.29
2023-09-28T00:18:16.428Z,17.29
2023-09-28T00:18:48.447Z,17.31
2023-09-28T00:19:20.338Z,17.31
2023-09-28T00:19:52.261Z,17.35
2023-09-28T00:20:24.639Z,17.35
2023-09-28T00:20:57.593Z,17.35
2023-09-28T00:21:29.824Z,17.32
2023-09-28T00:22:01.757Z,17.32
2023-09-28T00:22:34.120Z,17.33
2023-09-28T00:23:06.064Z,17.36
2023-09-28T00:23:38.011Z,17.36
2023-09-28T00:24:11.046Z,17.36
2023-09-28T00:24:43.932Z,17.40
2023-09-28T00:25:17.697Z,17.37
2023-09-28T00:25:49.728Z,17.38
2023-09-28T00:26:21.797Z,17.37
2023-09-28T00:26:53.950Z,17.34
2023-09-28T00:27:26.866Z,17.33
2023-09-28T00:27:58.809Z,17.33
2023-09-28T00:28:31.752Z,17.33
2023-09-28T00:29:04.476Z,17.33
2023-09-28T00:29:36.419Z,17.35
2023-09-28T00:30:19.731Z,17.31
2023-09-28T00:30:51.715Z,17.30
2023-09-28T00:31:23.809Z,17.29
2023-09-28T00:31:56.903Z,17.29
2023-09-28T00:32:28.817Z,17.29
2023-09-28T00:33:00.778Z,17.31
2023-09-28T00:33:32.652Z,17.33
2023-09-28T00:34:04.588Z,17.31
2023-09-28T00:34:36.568Z,17.32
2023-09-28T00:35:09.211Z,17.28
2023-09-28T00:35:41.182Z,17.31
2023-09-28T00:36:13.124Z,17.30
2023-09-28T00:36:45.096Z,17.31
2023-09-28T00:37:16.928Z,17.31
2023-09-28T00:37:49.918Z,17.29
2023-09-28T00:38:22.014Z,17.30
2023-09-28T00:38:53.882Z,17.28
2023-09-28T00:39:25.864Z,17.26
2023-09-28T00:39:58.052Z,17.26
2023-09-28T00:40:32.831Z,17.26
2023-09-28T00:41:05.779Z,17.24
2023-09-28T00:41:37.748Z,17.24
2023-09-28T00:42:09.702Z,17.25
2023-09-28T00:42:41.645Z,17.22
2023-09-28T00:43:13.592Z,17.27
2023-09-28T00:43:46.124Z,17.25
2023-09-28T00:44:19.115Z,17.24
2023-09-28T00:44:52.446Z,17.25
2023-09-28T00:45:25.672Z,17.24
2023-09-28T00:45:57.913Z,17.24
2023-09-28T00:46:34.586Z,17.26
2023-09-28T00:47:07.027Z,17.26
2023-09-28T00:47:42.866Z,17.24
2023-09-28T00:48:15.149Z,17.23
2023-09-28T00:49:04.900Z,17.22
2023-09-28T00:49:37.870Z,17.21
2023-09-28T00:50:18.662Z,17.21
2023-09-28T00:50:52.885Z,17.23
2023-09-28T00:51:27.443Z,17.22
2023-09-28T00:52:00.763Z,17.22
2023-09-28T00:52:34.899Z,17.22
2023-09-28T00:53:09.487Z,17.20
2023-09-28T00:53:42.152Z,17.17
2023-09-28T00:54:15.055Z,17.17
2023-09-28T00:54:49.913Z,17.15
2023-09-28T00:55:24.232Z,17.16
2023-09-28T00:55:57.607Z,17.16
2023-09-28T00:56:30.972Z,17.16
2023-09-28T00:57:03.388Z,17.18
2023-09-28T00:57:36.613Z,17.19
2023-09-28T00:58:11.137Z,17.21
2023-09-28T00:58:43.540Z,17.19
2023-09-28T00:59:16.241Z,17.21
2023-09-28T00:59:48.187Z,17.21
2023-09-28T01:00:22.254Z,17.20
2023-09-28T01:00:54.300Z,17.23
2023-09-28T01:01:30.283Z,17.22
2023-09-28T01:02:02.263Z,17.21
2023-09-28T01:02:34.343Z,17.19
2023-09-28T01:03:10.863Z,17.22
2023-09-28T01:03:43.830Z,17.23
2023-09-28T01:04:15.747Z,17.24
2023-09-28T01:04:49.337Z,17.25
2023-09-28T01:05:28.018Z,17.26
2023-09-28T01:05:59.978Z,17.27
2023-09-28T01:06:32.456Z,17.27
2023-09-28T01:07:05.741Z,17.26
2023-09-28T01:07:37.733Z,17.27
2023-09-28T01:08:13.241Z,17.26
2023-09-28T01:08:45.267Z,17.24
2023-09-28T01:09:17.249Z,17.28
2023-09-28T01:09:49.232Z,17.27
2023-09-28T01:10:27.219Z,17.29
2023-09-28T01:10:59.264Z,17.28
2023-09-28T01:11:31.228Z,17.28
2023-09-28T01:12:04.622Z,17.27
2023-09-28T01:12:39.783Z,17.30
2023-09-28T01:13:14.338Z,17.28
2023-09-28T01:13:46.394Z,17.28
2023-09-28T01:14:18.718Z,17.29
2023-09-28T01:14:54.808Z,17.31
2023-09-28T01:15:26.995Z,17.30
2023-09-28T01:15:59.251Z,17.33
2023-09-28T01:16:31.362Z,17.31
2023-09-28T01:17:04.577Z,17.35
2023-09-28T01:17:37.724Z,17.34
2023-09-28T01:18:13.974Z,17.33
2023-09-28T01:18:45.975Z,17.36
2023-09-28T01:19:17.912Z,17.35
2023-09-28T01:19:49.903Z,17.32
2023-09-28T01:20:35.838Z,17.36
2023-09-28T01:21:08.088Z,17.35
2023-09-28T01:21:41.215Z,17.37
2023-09-28T01:22:15.363Z,17.36
2023-09-28T01:22:50.426Z,17.37
2023-09-28T01:23:22.465Z,17.35
2023-09-28T01:23:54.608Z,17.35
2023-09-28T01:24:26.607Z,17.35
2023-09-28T01:24:59.006Z,17.38
2023-09-28T01:25:30.877Z,17.34
2023-09-28T01:26:03.307Z,17.34
2023-09-28T01:26:35.805Z,17.34
2023-09-28T01:27:07.948Z,17.33
2023-09-28T01:27:45.301Z,17.32
2023-09-28T01:28:20.325Z,17.36
2023-09-28T01:28:52.249Z,17.31
2023-09-28T01:29:24.198Z,17.33
2023-09-28T01:29:56.157Z,17.35
2023-09-28T01:30:29.029Z,17.33
2023-09-28T01:31:01.002Z,17.32
2023-09-28T01:31:33.907Z,17.33
2023-09-28T01:32:05.912Z,17.32
2023-09-28T01:32:37.832Z,17.30
2023-09-28T01:33:10.759Z,17.30
2023-09-28T01:33:44.026Z,17.31
2023-09-28T01:34:16.059Z,17.30
2023-09-28T01:34:47.999Z,17.30
2023-09-28T01:35:20.415Z,17.25
2023-09-28T01:35:52.353Z,17.30
2023-09-28T01:36:24.260Z,17.31
2023-09-28T01:36:56.170Z,17.31
2023-09-28T01:37:57.612Z,17.29
2023-09-28T01:38:49.665Z,17.28
2023-09-28T01:39:22.015Z,17.28
2023-09-28T01:39:53.927Z,17.28
2023-09-28T01:40:25.853Z,17.25
2023-09-28T01:40:58.791Z,17.25
2023-09-28T01:41:30.755Z,17.25
2023-09-28T01:42:02.662Z,17.24
2023-09-28T01:42:34.538Z,17.22
2023-09-28T01:43:07.393Z,17.22
2023-09-28T01:43:39.394Z,17.20
2023-09-28T01:44:12.384Z,17.17
2023-09-28T01:44:44.314Z,17.19
2023-09-28T01:45:16.633Z,17.21
2023-09-28T01:45:49.034Z,17.21
2023-09-28T01:46:21.006Z,17.19
2023-09-28T01:46:52.961Z,17.16
2023-09-28T01:47:25.027Z,17.16
2023-09-28T01:47:57.076Z,17.18
2023-09-28T01:48:29.047Z,17.17
2023-09-28T01:49:01.040Z,17.20
2023-09-28T01:49:32.963Z,17.19
2023-09-28T01:50:05.345Z,17.20
2023-09-28T01:50:37.347Z,17.17
2023-09-28T01:51:09.293Z,17.19
2023-09-28T01:51:41.283Z,17.20
2023-09-28T01:52:13.205Z,17.18
2023-09-28T01:52:45.284Z,17.18
2023-09-28T01:53:17.197Z,17.19
2023-09-28T01:53:49.162Z,17.18
2023-09-28T01:54:21.180Z,17.17
2023-09-28T01:54:53.221Z,17.14
2023-09-28T01:55:25.333Z,17.12
2023-09-28T01:56:00.515Z,17.10
2023-09-28T01:56:32.487Z,17.09
2023-09-28T01:57:04.569Z,17.11
2023-09-28T01:57:37.105Z,17.15
2023-09-28T01:58:09.423Z,17.12
2023-09-28T01:58:42.391Z,17.14
2023-09-28T01:59:15.736Z,17.13
2023-09-28T01:59:47.855Z,17.12
2023-09-28T02:00:21.487Z,17.13
2023-09-28T02:00:53.659Z,17.12
2023-09-28T02:01:30.055Z,17.12
2023-09-28T02:02:02.719Z,17.14
2023-09-28T02:02:35.998Z,17.12
2023-09-28T02:03:10.402Z,17.13
2023-09-28T02:03:42.416Z,17.10
2023-09-28T02:04:14.320Z,17.13
2023-09-28T02:04:46.283Z,17.08
2023-09-28T02:05:19.918Z,17.08
2023-09-28T02:05:51.849Z,17.09
2023-09-28T02:06:24.164Z,17.10
2023-09-28T02:06:56.749Z,17.10
2023-09-28T02:07:28.929Z,17.08
2023-09-28T02:08:01.882Z,17.06
2023-09-28T02:08:35.599Z,17.07
2023-09-28T02:09:07.641Z,17.09
2023-09-28T02:09:39.636Z,17.08
2023-09-28T02:10:12.227Z,17.10
2023-09-28T02:10:44.261Z,17.08
2023-09-28T02:11:16.395Z,17.08
2023-09-28T02:11:48.392Z,17.09
2023-09-28T02:12:20.839Z,17.10
2023-09-28T02:12:53.018Z,17.10
2023-09-28T02:13:24.903Z,17.09
2023-09-28T02:13:56.869Z,17.12
2023-09-28T02:14:29.116Z,17.11
2023-09-28T02:15:05.788Z,17.12
2023-09-28T02:15:38.409Z,17.13
2023-09-28T02:16:11.816Z,17.12
2023-09-28T02:16:44.176Z,17.15
2023-09-28T02:17:16.209Z,17.15
2023-09-28T02:17:48.412Z,17.16
2023-09-28T02:18:20.852Z,17.14
2023-09-28T02:18:52.828Z,17.14
2023-09-28T02:19:24.774Z,17.12
2023-09-28T02:19:56.852Z,17.10
2023-09-28T02:20:31.334Z,17.14
2023-09-28T02:21:04.225Z,17.13
2023-09-28T02:21:36.100Z,17.13
2023-09-28T02:22:10.406Z,17.13
2023-09-28T02:22:48.130Z,17.12
2023-09-28T02:23:20.762Z,17.12
2023-09-28T02:23:53.235Z,17.06
2023-09-28T02:24:25.472Z,17.05
2023-09-28T02:24:57.455Z,17.03
2023-09-28T02:25:30.731Z,17.05
2023-09-28T02:26:07.654Z,17.06
2023-09-28T02:26:40.077Z,17.08
2023-09-28T02:27:11.952Z,17.07
2023-09-28T02:27:44.120Z,17.06
2023-09-28T02:28:16.114Z,17.09
2023-09-28T02:28:48.919Z,17.09
2023-09-28T02:29:20.965Z,17.03
2023-09-28T02:29:53.368Z,17.05
2023-09-28T02:30:26.277Z,17.05
2023-09-28T02:31:05.988Z,17.05
2023-09-28T02:31:44.080Z,17.00
2023-09-28T02:32:16.200Z,17.00
2023-09-28T02:32:51.281Z,17.03
2023-09-28T02:33:23.331Z,17.04
2023-09-28T02:33:57.469Z,17.02
2023-09-28T02:34:29.479Z,17.04
2023-09-28T02:35:01.733Z,17.05
2023-09-28T02:35:33.911Z,17.06
2023-09-28T02:36:06.188Z,17.05
2023-09-28T02:36:38.081Z,17.04
2023-09-28T02:37:10.026Z,17.04
2023-09-28T02:37:44.081Z,17.04
2023-09-28T02:38:16.031Z,17.05
2023-09-28T02:38:48.560Z,17.04
2023-09-28T02:39:20.516Z,17.03
2023-09-28T02:39:52.396Z,17.01
2023-09-28T02:40:25.359Z,17.02
2023-09-28T02:40:57.380Z,17.00
2023-09-28T02:41:29.322Z,16.99
2023-09-28T02:42:01.524Z,16.98
2023-09-28T02:42:35.021Z,17.00
2023-09-28T02:43:06.943Z,16.99
2023-09-28T02:43:38.869Z,16.98
2023-09-28T02:44:10.865Z,17.01
2023-09-28T02:44:42.884Z,17.00
2023-09-28T02:45:15.314Z,16.99
2023-09-28T02:45:47.398Z,17.01
2023-09-28T02:46:19.387Z,17.01
2023-09-28T02:46:51.673Z,17.02
2023-09-28T02:47:23.854Z,16.98
2023-09-28T02:47:56.104Z,16.98
2023-09-28T02:48:28.818Z,16.99
2023-09-28T02:49:00.834Z,17.01
2023-09-28T02:49:35.612Z,16.99
2023-09-28T02:50:11.363Z,16.97
2023-09-28T02:50:44.109Z,16.99
2023-09-28T02:51:15.981Z,16.99
2023-09-28T02:51:48.062Z,16.99
2023-09-28T02:52:20.371Z,17.00
2023-09-28T02:52:53.982Z,17.00
2023-09-28T02:53:26.403Z,16.97
2023-09-28T02:53:59.656Z,16.96
2023-09-28T02:54:31.728Z,16.98
2023-09-28T02:55:05.633Z,16.99
2023-09-28T02:55:38.396Z,17.01
2023-09-28T02:56:10.327Z,17.00
2023-09-28T02:56:43.772Z,17.03
2023-09-28T02:57:15.773Z,17.02
2023-09-28T02:57:48.836Z,17.02
2023-09-28T02:58:23.384Z,16.98
2023-09-28T02:58:56.314Z,17.00
2023-09-28T02:59:28.992Z,17.01
2023-09-28T03:00:01.850Z,17.03
2023-09-28T03:00:34.624Z,17.02
2023-09-28T03:01:06.732Z,17.03
2023-09-28T03:01:39.368Z,17.00
2023-09-28T03:02:15.227Z,16.99
2023-09-28T03:02:48.027Z,17.01
2023-09-28T03:03:20.049Z,17.00
2023-09-28T03:03:52.316Z,16.98
2023-09-28T03:04:25.402Z,17.02
2023-09-28T03:04:58.322Z,17.00
2023-09-28T03:05:30.427Z,16.99
2023-09-28T03:06:02.309Z,17.00
2023-09-28T03:06:38.739Z,16.98
2023-09-28T03:07:10.615Z,16.97
2023-09-28T03:07:42.526Z,16.98
2023-09-28T03:08:15.802Z,17.00
2023-09-28T03:08:48.390Z,17.01
2023-09-28T03:09:21.247Z,17.04
2023-09-28T03:09:53.246Z,17.01
2023-09-28T03:10:26.303Z,17.01
2023-09-28T03:10:59.605Z,17.00
2023-09-28T03:11:31.585Z,17.00
2023-09-28T03:12:04.778Z,17.02
2023-09-28T03:12:37.331Z,17.01
2023-09-28T03:13:10.112Z,17.02
2023-09-28T03:13:42.033Z,17.04
2023-09-28T03:14:14.007Z,17.04
2023-09-28T03:14:46.096Z,17.08
2023-09-28T03:15:19.343Z,17.10
2023-09-28T03:15:51.289Z,17.10
2023-09-28T03:16:23.265Z,17.08
2023-09-28T03:16:56.050Z,17.08
2023-09-28T03:17:29.557Z,17.08
2023-09-28T03:18:01.522Z,17.08
2023-09-28T03:18:33.786Z,17.04
2023-09-28T03:19:05.682Z,17.05
2023-09-28T03:19:37.653Z,17.02
2023-09-28T03:20:17.002Z,17.02
2023-09-28T03:20:49.424Z,17.04
2023-09-28T03:21:21.297Z,17.04
2023-09-28T03:21:54.861Z,17.03
2023-09-28T03:22:26.760Z,17.04
2023-09-28T03:22:58.782Z,17.07
2023-09-28T03:23:30.704Z,17.03
2023-09-28T03:24:02.792Z,17.01
2023-09-28T03:24:34.752Z,17.01
2023-09-28T03:25:11.666Z,17.05
2023-09-28T03:25:44.388Z,17.04
2023-09-28T03:26:16.452Z,17.04
2023-09-28T03:26:56.915Z,17.04
2023-09-28T03:27:41.381Z,17.04
2023-09-28T03:28:14.448Z,16.99
2023-09-28T03:28:46.362Z,16.99
2023-09-28T03:29:18.482Z,17.04
2023-09-28T03:29:51.289Z,17.02
2023-09-28T03:30:24.826Z,16.99
2023-09-28T03:30:56.740Z,17.01
2023-09-28T03:31:28.871Z,17.00
2023-09-28T03:32:01.117Z,17.01
2023-09-28T03:32:33.266Z,16.98
2023-09-28T03:33:05.462Z,16.99
2023-09-28T03:33:37.397Z,16.99
2023-09-28T03:34:09.780Z,17.01
2023-09-28T03:34:41.782Z,16.99
2023-09-28T03:35:14.310Z,17.01
2023-09-28T03:35:46.243Z,17.02
2023-09-28T03:36:18.237Z,17.02
2023-09-28T03:36:50.186Z,17.04
2023-09-28T03:37:22.113Z,17.02
2023-09-28T03:37:58.964Z,17.00
2023-09-28T03:38:31.105Z,16.98
2023-09-28T03:39:04.012Z,16.99
2023-09-28T03:39:35.921Z,17.04
2023-09-28T03:40:12.937Z,17.04
2023-09-28T03:40:45.737Z,17.04
2023-09-28T03:41:18.584Z,17.02
2023-09-28T03:41:51.195Z,17.03
2023-09-28T03:42:23.116Z,17.01
2023-09-28T03:42:55.046Z,17.01
2023-09-28T03:43:26.965Z,17.01
2023-09-28T03:43:58.915Z,17.00
2023-09-28T03:44:30.804Z,17.00
2023-09-28T03:45:09.881Z,17.00
2023-09-28T03:45:42.752Z,17.03
2023-09-28T03:46:19.492Z,17.04
2023-09-28T03:46:51.453Z,17.02
2023-09-28T03:47:23.374Z,17.04
2023-09-28T03:47:55.805Z,17.03
2023-09-28T03:48:27.985Z,17.02
2023-09-28T03:48:59.913Z,17.04
2023-09-28T03:49:31.958Z,17.00
2023-09-28T03:50:05.453Z,17.00
2023-09-28T03:50:37.709Z,17.01
2023-09-28T03:51:10.127Z,17.02
2023-09-28T03:51:42.181Z,17.03
2023-09-28T03:52:14.121Z,17.04
2023-09-28T03:52:46.122Z,17.04
2023-09-28T03:53:18.405Z,17.03
2023-09-28T03:53:50.326Z,17.05
2023-09-28T03:54:22.233Z,17.05
2023-09-28T03:54:54.124Z,17.04
2023-09-28T03:55:26.193Z,17.06
2023-09-28T03:55:58.281Z,17.05
2023-09-28T03:56:30.224Z,17.04
2023-09-28T03:57:02.205Z,17.04
2023-09-28T03:57:34.167Z,17.02
2023-09-28T03:58:06.067Z,17.02
2023-09-28T03:58:38.114Z,17.03
2023-09-28T03:59:10.133Z,17.04
2023-09-28T03:59:42.087Z,17.01
2023-09-28T04:00:16.894Z,17.02
2023-09-28T04:00:49.821Z,17.05
2023-09-28T04:01:21.805Z,17.04
2023-09-28T04:01:53.848Z,17.04
2023-09-28T04:02:29.224Z,17.02
2023-09-28T04:03:01.265Z,17.02
2023-09-28T04:03:33.225Z,17.03
2023-09-28T04:04:06.332Z,17.01
2023-09-28T04:04:38.727Z,16.99
2023-09-28T04:05:10.806Z,17.00
2023-09-28T04:05:42.784Z,17.01
2023-09-28T04:06:14.925Z,17.01
2023-09-28T04:06:46.861Z,17.01
2023-09-28T04:07:19.072Z,17.01
2023-09-28T04:07:51.337Z,17.04
2023-09-28T04:08:24.325Z,17.01
2023-09-28T04:08:56.775Z,17.00
2023-09-28T04:09:28.669Z,17.00
2023-09-28T04:10:00.785Z,17.01
2023-09-28T04:10:34.749Z,17.01
2023-09-28T04:11:06.719Z,17.00
2023-09-28T04:11:38.830Z,17.01
2023-09-28T04:12:10.802Z,16.98
2023-09-28T04:12:42.761Z,17.00
2023-09-28T04:13:14.657Z,17.00
2023-09-28T04:13:46.550Z,17.01
2023-09-28T04:14:18.465Z,16.98
2023-09-28T04:14:50.762Z,16.99
2023-09-28T04:15:24.276Z,17.01
2023-09-28T04:15:56.996Z,17.03
2023-09-28T04:16:29.023Z,17.05
2023-09-28T04:17:01.010Z,17.07
2023-09-28T04:17:35.572Z,17.04
2023-09-28T04:18:09.122Z,17.06
2023-09-28T04:18:41.179Z,17.09
2023-09-28T04:19:13.083Z,17.09
2023-09-28T04:19:45.071Z,17.05
2023-09-28T04:20:17.696Z,17.05
2023-09-28T04:20:49.857Z,17.01
2023-09-28T04:21:21.790Z,17.05
2023-09-28T04:21:53.712Z,17.06
2023-09-28T04:22:25.629Z,17.10
2023-09-28T04:22:57.610Z,17.13
2023-09-28T04:23:29.606Z,17.15
2023-09-28T04:24:01.565Z,17.15
2023-09-28T04:24:33.582Z,17.16
2023-09-28T04:25:05.827Z,17.16
2023-09-28T04:25:37.800Z,17.19
2023-09-28T04:26:10.176Z,17.20
2023-09-28T04:26:42.342Z,17.22
2023-09-28T04:27:14.258Z,17.24
2023-09-28T04:27:46.443Z,17.23
2023-09-28T04:28:18.863Z,17.20
2023-09-28T04:28:50.907Z,17.24
2023-09-28T04:29:22.884Z,17.25
2023-09-28T04:29:55.978Z,17.21
2023-09-28T04:30:28.689Z,17.24
2023-09-28T04:31:00.952Z,17.22
2023-09-28T04:31:32.927Z,17.20
2023-09-28T04:32:05.511Z,17.20
2023-09-28T04:32:37.720Z,17.22
2023-09-28T04:33:09.910Z,17.23
2023-09-28T04:33:41.839Z,17.21
2023-09-28T04:34:14.505Z,17.17
2023-09-28T04:34:46.563Z,17.20
2023-09-28T04:35:18.733Z,17.20
2023-09-28T04:35:51.443Z,17.17
2023-09-28T04:36:23.528Z,17.18
2023-09-28T04:36:55.405Z,17.15
2023-09-28T04:37:27.398Z,17.16
2023-09-28T04:37:59.339Z,17.17
2023-09-28T04:38:31.240Z,17.19
2023-09-28T04:39:05.474Z,17.18
2023-09-28T04:39:37.417Z,17.15
2023-09-28T04:40:11.419Z,17.16
2023-09-28T04:40:43.389Z,17.17
2023-09-28T04:41:15.306Z,17.19
2023-09-28T04:41:47.640Z,17.18
2023-09-28T04:42:21.681Z,17.20
2023-09-28T04:42:54.648Z,17.21
2023-09-28T04:43:26.517Z,17.17
2023-09-28T04:43:59.416Z,17.17
2023-09-28T04:44:31.622Z,17.16
2023-09-28T04:45:04.355Z,17.17
2023-09-28T04:45:36.367Z,17.15
2023-09-28T04:46:08.450Z,17.18
2023-09-28T04:46:40.438Z,17.16
2023-09-28T04:47:12.849Z,17.16
2023-09-28T04:47:44.932Z,17.18
2023-09-28T04:48:17.016Z,17.18
2023-09-28T04:48:48.919Z,17.15
2023-09-28T04:49:21.072Z,17.15
2023-09-28T04:49:53.033Z,17.16
2023-09-28T04:50:24.937Z,17.17
2023-09-28T04:50:56.792Z,17.16
2023-09-28T04:51:30.297Z,17.13
2023-09-28T04:52:02.252Z,17.14
2023-09-28T04:52:34.148Z,17.16
2023-09-28T04:53:06.191Z,17.16
2023-09-28T04:53:38.142Z,17.13
2023-09-28T04:54:10.779Z,17.12
2023-09-28T04:54:43.586Z,17.13
2023-09-28T04:55:15.729Z,17.16
2023-09-28T04:55:47.655Z,17.15
2023-09-28T04:56:19.857Z,17.11
2023-09-28T04:56:51.795Z,17.13
2023-09-28T04:57:26.089Z,17.14
2023-09-28T04:57:57.972Z,17.14
2023-09-28T04:58:29.892Z,17.14
2023-09-28T04:59:01.888Z,17.14
2023-09-28T04:59:40.796Z,17.14
2023-09-28T05:00:17.950Z,17.13
2023-09-28T05:00:49.922Z,17.15
2023-09-28T05:01:22.650Z,17.15
2023-09-28T05:01:54.630Z,17.16
2023-09-28T05:02:27.846Z,17.16
2023-09-28T05:03:02.741Z,17.14
2023-09-28T05:03:35.154Z,17.15
2023-09-28T05:04:12.147Z,17.17
2023-09-28T05:04:44.565Z,17.16
2023-09-28T05:05:17.150Z,17.15
2023-09-28T05:05:50.261Z,17.14
2023-09-28T05:06:22.394Z,17.16
2023-09-28T05:06:54.438Z,17.15
2023-09-28T05:07:26.386Z,17.16
2023-09-28T05:07:58.372Z,17.14
2023-09-28T05:08:30.277Z,17.12
2023-09-28T05:09:02.264Z,17.19
2023-09-28T05:09:35.672Z,17.19
2023-09-28T05:10:09.325Z,17.21
2023-09-28T05:10:41.414Z,17.22
2023-09-28T05:11:13.457Z,17.25
2023-09-28T05:11:45.536Z,17.25
2023-09-28T05:12:17.913Z,17.25
2023-09-28T05:12:49.815Z,17.27
2023-09-28T05:13:24.405Z,17.22
2023-09-28T05:13:56.462Z,17.25
2023-09-28T05:14:28.971Z,17.29
2023-09-28T05:15:01.068Z,17.28
2023-09-28T05:15:33.800Z,17.30
2023-09-28T05:16:05.794Z,17.32
2023-09-28T05:16:37.800Z,17.33
2023-09-28T05:17:09.859Z,17.37
2023-09-28T05:17:42.535Z,17.39
2023-09-28T05:18:14.461Z,17.41
2023-09-28T05:18:47.271Z,17.42
2023-09-28T05:19:19.546Z,17.43
2023-09-28T05:19:51.695Z,17.42
2023-09-28T05:20:26.146Z,17.47
2023-09-28T05:20:58.367Z,17.48
2023-09-28T05:21:30.325Z,17.49
2023-09-28T05:22:02.610Z,17.52
2023-09-28T05:22:34.682Z,17.52
2023-09-28T05:23:07.398Z,17.51
2023-09-28T05:23:39.567Z,17.55
2023-09-28T05:24:11.566Z,17.58
2023-09-28T05:24:43.540Z,17.58
2023-09-28T05:25:16.001Z,17.60
2023-09-28T05:25:47.934Z,17.63
2023-09-28T05:26:19.950Z,17.64
2023-09-28T05:26:51.896Z,17.65
2023-09-28T05:27:23.867Z,17.68
2023-09-28T05:27:55.735Z,17.68
2023-09-28T05:28:27.751Z,17.72
2023-09-28T05:29:00.103Z,17.75
2023-09-28T05:29:32.060Z,17.79
2023-09-28T05:30:06.016Z,17.79
2023-09-28T05:30:38.837Z,17.80
2023-09-28T05:31:11.019Z,17.83
2023-09-28T05:31:43.480Z,17.87
2023-09-28T05:32:15.456Z,17.88
2023-09-28T05:32:47.563Z,17.93
2023-09-28T05:33:19.780Z,17.98
2023-09-28T05:33:51.720Z,17.98
2023-09-28T05:34:23.823Z,18.03
2023-09-28T05:34:55.796Z,18.06
2023-09-28T05:35:27.841Z,18.09
2023-09-28T05:35:59.862Z,18.12
2023-09-28T05:36:31.769Z,18.17
2023-09-28T05:37:04.389Z,18.23
2023-09-28T05:37:36.688Z,18.27
2023-09-28T05:38:08.719Z,18.32
2023-09-28T05:38:40.730Z,18.39
2023-09-28T05:39:13.942Z,18.50
2023-09-28T05:39:45.912Z,18.56
2023-09-28T05:40:18.153Z,18.60
2023-09-28T05:40:50.107Z,18.69
2023-09-28T05:41:22.393Z,18.75
2023-09-28T05:41:54.949Z,18.79
2023-09-28T05:42:26.993Z,18.82
2023-09-28T05:42:58.924Z,18.89
2023-09-28T05:43:31.179Z,18.95
2023-09-28T05:44:03.348Z,19.04
2023-09-28T05:44:36.195Z,19.08
2023-09-28T05:45:09.222Z,19.15
2023-09-28T05:45:41.246Z,19.24
2023-09-28T05:46:13.153Z,19.28
2023-09-28T05:46:45.073Z,19.29
2023-09-28T05:47:16.996Z,19.35
2023-09-28T05:47:49.621Z,19.40
2023-09-28T05:48:21.572Z,19.44
2023-09-28T05:48:53.692Z,19.44
2023-09-28T05:49:25.608Z,19.54
2023-09-28T05:49:57.567Z,19.62
2023-09-28T05:50:29.532Z,19.66
2023-09-28T05:51:01.643Z,19.78
2023-09-28T05:51:33.622Z,19.84
2023-09-28T05:52:06.641Z,19.93
2023-09-28T05:52:38.851Z,19.96
2023-09-28T05:53:11.579Z,19.94
2023-09-28T05:53:45.310Z,20.05
2023-09-28T05:54:18.253Z,20.12
2023-09-28T05:54:50.965Z,20.15
2023-09-28T05:55:23.914Z,20.16
2023-09-28T05:55:56.638Z,20.20
2023-09-28T05:56:28.596Z,20.27
2023-09-28T05:57:00.587Z,20.30
2023-09-28T05:57:32.810Z,20.36
2023-09-28T05:58:05.446Z,20.46
2023-09-28T05:58:37.428Z,20.51
2023-09-28T05:59:09.461Z,20.60
2023-09-28T05:59:41.477Z,20.66
2023-09-28T06:00:14.812Z,20.75
2023-09-28T06:00:47.188Z,20.84
2023-09-28T06:01:19.350Z,20.84
2023-09-28T06:01:51.347Z,20.77
2023-09-28T06:02:24.386Z,20.82
2023-09-28T06:02:56.528Z,20.92
2023-09-28T06:03:28.870Z,20.91
2023-09-28T06:04:01.036Z,20.92
2023-09-28T06:04:34.394Z,20.98
2023-09-28T06:05:06.867Z,20.99
2023-09-28T06:05:38.767Z,21.13
2023-09-28T06:06:17.716Z,21.20
2023-09-28T06:06:51.913Z,21.31
2023-09-28T06:07:25.361Z,21.40
2023-09-28T06:07:57.408Z,21.29
2023-09-28T06:08:29.462Z,21.37
2023-09-28T06:09:01.551Z,21.46
2023-09-28T06:09:33.525Z,21.53
2023-09-28T06:10:06.320Z,21.59
2023-09-28T06:10:39.407Z,21.56
2023-09-28T06:11:13.337Z,21.67
2023-09-28T06:11:47.176Z,21.76
2023-09-28T06:12:19.158Z,21.80
2023-09-28T06:12:51.051Z,21.82
2023-09-28T06:13:23.876Z,21.87
2023-09-28T06:14:07.643Z,21.99
2023-09-28T06:14:40.542Z,21.99
2023-09-28T06:15:12.670Z,21.99
2023-09-28T06:15:44.613Z,21.78
2023-09-28T06:16:16.972Z,21.71
2023-09-28T06:16:49.858Z,21.53
2023-09-28T06:17:22.037Z,21.30
2023-09-28T06:17:54.115Z,21.30
2023-09-28T06:18:26.086Z,21.38
2023-09-28T06:18:58.078Z,21.54
2023-09-28T06:19:29.974Z,21.71
2023-09-28T06:20:03.287Z,21.76
2023-09-28T06:20:38.002Z,21.87
2023-09-28T06:21:11.824Z,21.95
2023-09-28T06:21:43.838Z,22.03
2023-09-28T06:22:15.758Z,21.60
2023-09-28T06:22:47.698Z,21.48
2023-09-28T06:23:19.935Z,21.47
2023-09-28T06:23:51.911Z,21.60
2023-09-28T06:24:23.969Z,21.73
2023-09-28T06:24:57.041Z,21.87
2023-09-28T06:25:29.149Z,21.88
2023-09-28T06:26:01.582Z,21.92
2023-09-28T06:26:42.903Z,21.81
2023-09-28T06:27:15.452Z,21.65
2023-09-28T06:27:48.836Z,21.63
2023-09-28T06:28:22.472Z,21.80
2023-09-28T06:28:55.431Z,21.76
2023-09-28T06:29:28.108Z,21.53
2023-09-28T06:30:00.108Z,21.41
2023-09-28T06:30:32.071Z,21.46
2023-09-28T06:31:04.011Z,21.45
2023-09-28T06:31:36.072Z,21.44
2023-09-28T06:32:08.134Z,21.45
2023-09-28T06:32:40.174Z,21.40
2023-09-28T06:33:12.134Z,21.41
2023-09-28T06:33:44.224Z,21.49
2023-09-28T06:34:16.161Z,21.52
2023-09-28T06:34:48.239Z,21.46
2023-09-28T06:35:20.183Z,21.48
2023-09-28T06:35:52.529Z,21.44
2023-09-28T06:36:38.494Z,21.48
2023-09-28T06:37:13.501Z,21.54
2023-09-28T06:37:45.406Z,21.60
2023-09-28T06:38:17.411Z,21.64
2023-09-28T06:38:49.370Z,21.48
2023-09-28T06:39:21.304Z,21.32
2023-09-28T06:39:53.158Z,21.31
2023-09-28T06:40:25.462Z,21.22
2023-09-28T06:40:57.518Z,21.26
2023-09-28T06:41:29.660Z,21.36
2023-09-28T06:42:16.639Z,21.50
2023-09-28T06:42:52.656Z,21.74
2023-09-28T06:43:24.549Z,21.88
2023-09-28T06:43:56.522Z,22.05
2023-09-28T06:44:28.539Z,22.19
2023-09-28T06:45:00.444Z,22.23
2023-09-28T06:45:32.564Z,22.29
2023-09-28T06:46:05.155Z,22.42
2023-09-28T06:46:38.133Z,22.57
2023-09-28T06:47:10.126Z,22.75
2023-09-28T06:47:55.645Z,22.92
2023-09-28T06:48:32.064Z,23.17
2023-09-28T06:49:06.782Z,23.32
2023-09-28T06:49:38.729Z,23.45
2023-09-28T06:50:12.311Z,23.57
2023-09-28T06:50:44.316Z,23.64
2023-09-28T06:51:17.209Z,23.77
2023-09-28T06:51:50.350Z,23.90
2023-09-28T06:52:22.867Z,23.98
2023-09-28T06:52:55.248Z,24.09
2023-09-28T06:53:27.651Z,24.25
2023-09-28T06:54:01.984Z,24.15
2023-09-28T06:54:34.101Z,24.25
2023-09-28T06:55:06.646Z,24.24
2023-09-28T06:55:38.607Z,24.28
2023-09-28T06:56:14.536Z,24.43
2023-09-28T06:56:49.567Z,24.61
2023-09-28T06:57:21.896Z,24.76
2023-09-28T06:57:53.918Z,24.79
2023-09-28T06:58:26.273Z,24.76
2023-09-28T06:58:58.800Z,24.81
2023-09-28T06:59:30.848Z,24.82
2023-09-28T07:00:10.153Z,24.90
2023-09-28T07:01:06.780Z,25.19
2023-09-28T07:01:39.330Z,25.17
2023-09-28T07:02:11.616Z,25.25
2023-09-28T07:02:48.478Z,25.35
2023-09-28T07:03:21.357Z,25.35
2023-09-28T07:03:54.598Z,25.28